sensor_id;sensor_type;location;lat;lon;timestamp;temperature;humidity
72320;SHT30;60269;52.502;16.732;2024-03-23T00:54:20;9.08;99.93
72320;SHT30;60269;52.502;16.732;2024-03-23T00:57:51;9.07;99.98
72320;SHT30;60269;52.502;16.732;2024-03-23T01:01:22;9.07;99.87
72320;SHT30;60269;52.502;16.732;2024-03-23T01:04:53;9.06;99.96
72320;SHT30;60269;52.502;16.732;2024-03-23T01:08:24;9.07;99.97
72320;SHT30;60269;52.502;16.732;2024-03-23T01:11:55;9.03;99.99
72320;SHT30;60269;52.502;16.732;2024-03-23T01:15:26;9.07;99.99
72320;SHT30;60269;52.502;16.732;2024-03-23T01:18:57;9.03;99.94
72320;SHT30;60269;52.502;16.732;2024-03-23T01:22:28;9.06;99.96
72320;SHT30;60269;52.502;16.732;2024-03-23T01:25:59;9.01;99.98
72320;SHT30;60269;52.502;16.732;2024-03-23T01:29:30;9.03;99.99
72320;SHT30;60269;52.502;16.732;2024-03-23T01:33:01;9.03;99.99
72320;SHT30;60269;52.502;16.732;2024-03-23T01:36:33;9.04;99.95
72320;SHT30;60269;52.502;16.732;2024-03-23T01:40:05;9.04;99.99
72320;SHT30;60269;52.502;16.732;2024-03-23T01:43:36;9.01;99.96
72320;SHT30;60269;52.502;16.732;2024-03-23T01:47:07;9.00;99.95
72320;SHT30;60269;52.502;16.732;2024-03-23T01:50:38;9.03;99.99
72320;SHT30;60269;52.502;16.732;2024-03-23T01:54:10;9.03;99.99
72320;SHT30;60269;52.502;16.732;2024-03-23T01:57:41;9.01;99.99
72320;SHT30;60269;52.502;16.732;2024-03-23T02:01:12;9.01;99.99
72320;SHT30;60269;52.502;16.732;2024-03-23T02:04:43;9.04;99.99
72320;SHT30;60269;52.502;16.732;2024-03-23T02:08:13;9.03;99.99
72320;SHT30;60269;52.502;16.732;2024-03-23T02:11:45;9.03;99.99
72320;SHT30;60269;52.502;16.732;2024-03-23T02:15:16;9.03;99.99
72320;SHT30;60269;52.502;16.732;2024-03-23T02:18:47;9.01;99.99
72320;SHT30;60269;52.502;16.732;2024-03-23T02:22:18;9.06;99.99
72320;SHT30;60269;52.502;16.732;2024-03-23T02:25:49;9.03;99.99
72320;SHT30;60269;52.502;16.732;2024-03-23T02:29:20;9.04;99.99
72320;SHT30;60269;52.502;16.732;2024-03-23T02:32:51;9.03;99.99
72320;SHT30;60269;52.502;16.732;2024-03-23T02:36:22;9.03;99.99
72320;SHT30;60269;52.502;16.732;2024-03-23T02:39:53;9.07;99.99
72320;SHT30;60269;52.502;16.732;2024-03-23T02:43:24;9.03;99.99
72320;SHT30;60269;52.502;16.732;2024-03-23T02:46:55;9.04;99.99
72320;SHT30;60269;52.502;16.732;2024-03-23T02:50:26;9.03;99.99
72320;SHT30;60269;52.502;16.732;2024-03-23T02:53:57;9.01;99.99
72320;SHT30;60269;52.502;16.732;2024-03-23T02:57:28;9.01;99.99
72320;SHT30;60269;52.502;16.732;2024-03-23T03:00:59;9.01;99.99
72320;SHT30;60269;52.502;16.732;2024-03-23T03:04:30;9.06;99.99
72320;SHT30;60269;52.502;16.732;2024-03-23T03:08:01;9.01;99.99
72320;SHT30;60269;52.502;16.732;2024-03-23T03:11:32;9.03;99.99
72320;SHT30;60269;52.502;16.732;2024-03-23T03:15:04;8.99;99.99
72320;SHT30;60269;52.502;16.732;2024-03-23T03:18:35;8.99;99.99
72320;SHT30;60269;52.502;16.732;2024-03-23T03:22:06;9.00;99.99
72320;SHT30;60269;52.502;16.732;2024-03-23T03:25:37;9.01;99.99
72320;SHT30;60269;52.502;16.732;2024-03-23T03:29:08;9.04;99.99
72320;SHT30;60269;52.502;16.732;2024-03-23T03:32:39;8.99;99.90
72320;SHT30;60269;52.502;16.732;2024-03-23T03:36:11;8.60;99.10
72320;SHT30;60269;52.502;16.732;2024-03-23T03:39:42;8.45;98.94
72320;SHT30;60269;52.502;16.732;2024-03-23T03:43:13;8.28;98.93
72320;SHT30;60269;52.502;16.732;2024-03-23T03:46:44;8.22;98.92
72320;SHT30;60269;52.502;16.732;2024-03-23T03:50:15;8.14;99.06
72320;SHT30;60269;52.502;16.732;2024-03-23T03:53:46;7.84;98.60
72320;SHT30;60269;52.502;16.732;2024-03-23T03:57:17;7.65;98.57
72320;SHT30;60269;52.502;16.732;2024-03-23T04:00:48;7.53;98.78
72320;SHT30;60269;52.502;16.732;2024-03-23T04:04:19;7.42;98.84
72320;SHT30;60269;52.502;16.732;2024-03-23T04:07:51;7.36;98.80
72320;SHT30;60269;52.502;16.732;2024-03-23T04:11:22;7.35;98.80
72320;SHT30;60269;52.502;16.732;2024-03-23T04:14:53;7.25;98.86
72320;SHT30;60269;52.502;16.732;2024-03-23T04:18:24;7.25;98.88
72320;SHT30;60269;52.502;16.732;2024-03-23T04:21:55;7.25;98.91
72320;SHT30;60269;52.502;16.732;2024-03-23T04:25:26;7.15;99.14
72320;SHT30;60269;52.502;16.732;2024-03-23T04:28:57;7.11;99.21
72320;SHT30;60269;52.502;16.732;2024-03-23T04:32:28;7.04;99.29
72320;SHT30;60269;52.502;16.732;2024-03-23T04:35:59;7.05;99.25
72320;SHT30;60269;52.502;16.732;2024-03-23T04:39:30;7.01;99.49
72320;SHT30;60269;52.502;16.732;2024-03-23T04:43:01;7.00;99.48
72320;SHT30;60269;52.502;16.732;2024-03-23T04:46:32;6.98;99.46
72320;SHT30;60269;52.502;16.732;2024-03-23T04:50:03;7.00;99.60
72320;SHT30;60269;52.502;16.732;2024-03-23T04:53:35;7.00;99.36
72320;SHT30;60269;52.502;16.732;2024-03-23T04:57:06;6.95;99.42
72320;SHT30;60269;52.502;16.732;2024-03-23T05:00:37;6.93;99.33
72320;SHT30;60269;52.502;16.732;2024-03-23T05:04:09;6.91;99.30
72320;SHT30;60269;52.502;16.732;2024-03-23T05:07:39;6.88;99.26
72320;SHT30;60269;52.502;16.732;2024-03-23T05:11:12;6.87;99.43
72320;SHT30;60269;52.502;16.732;2024-03-23T05:14:43;6.85;99.39
72320;SHT30;60269;52.502;16.732;2024-03-23T05:18:14;6.84;99.19
72320;SHT30;60269;52.502;16.732;2024-03-23T05:21:45;6.88;99.17
72320;SHT30;60269;52.502;16.732;2024-03-23T05:25:16;6.91;98.83
72320;SHT30;60269;52.502;16.732;2024-03-23T05:28:47;6.77;98.76
72320;SHT30;60269;52.502;16.732;2024-03-23T05:32:18;6.84;98.79
72320;SHT30;60269;52.502;16.732;2024-03-23T05:36:00;6.81;98.93
72320;SHT30;60269;52.502;16.732;2024-03-23T05:39:31;6.79;98.99
72320;SHT30;60269;52.502;16.732;2024-03-23T05:43:02;6.80;99.07
72320;SHT30;60269;52.502;16.732;2024-03-23T05:46:33;6.80;99.05
72320;SHT30;60269;52.502;16.732;2024-03-23T05:50:04;6.84;99.09
72320;SHT30;60269;52.502;16.732;2024-03-23T05:53:35;6.83;98.97
72320;SHT30;60269;52.502;16.732;2024-03-23T05:57:07;6.81;98.75
72320;SHT30;60269;52.502;16.732;2024-03-23T06:00:38;6.84;98.76
72320;SHT30;60269;52.502;16.732;2024-03-23T06:04:09;6.87;98.43
72320;SHT30;60269;52.502;16.732;2024-03-23T06:07:40;6.90;98.60
72320;SHT30;60269;52.502;16.732;2024-03-23T06:11:11;6.95;98.60
72320;SHT30;60269;52.502;16.732;2024-03-23T06:14:42;6.94;98.47
72320;SHT30;60269;52.502;16.732;2024-03-23T06:18:13;7.01;98.19
72320;SHT30;60269;52.502;16.732;2024-03-23T06:21:44;7.01;98.10
72320;SHT30;60269;52.502;16.732;2024-03-23T06:25:15;6.97;98.30
72320;SHT30;60269;52.502;16.732;2024-03-23T06:28:47;6.94;98.56
72320;SHT30;60269;52.502;16.732;2024-03-23T06:32:18;7.01;98.51
72320;SHT30;60269;52.502;16.732;2024-03-23T06:35:52;7.05;98.52
72320;SHT30;60269;52.502;16.732;2024-03-23T06:39:23;7.16;98.41
72320;SHT30;60269;52.502;16.732;2024-03-23T06:42:54;7.22;98.14
72320;SHT30;60269;52.502;16.732;2024-03-23T06:46:25;7.29;98.24
72320;SHT30;60269;52.502;16.732;2024-03-23T06:49:56;7.31;98.03
72320;SHT30;60269;52.502;16.732;2024-03-23T06:53:27;7.28;98.17
72320;SHT30;60269;52.502;16.732;2024-03-23T06:56:58;7.19;98.08
72320;SHT30;60269;52.502;16.732;2024-03-23T07:00:29;7.22;98.23
72320;SHT30;60269;52.502;16.732;2024-03-23T07:04:00;7.32;98.35
72320;SHT30;60269;52.502;16.732;2024-03-23T07:07:31;7.45;98.05
72320;SHT30;60269;52.502;16.732;2024-03-23T07:11:02;7.55;97.93
72320;SHT30;60269;52.502;16.732;2024-03-23T07:14:33;7.56;97.73
72320;SHT30;60269;52.502;16.732;2024-03-23T07:18:05;7.55;97.80
72320;SHT30;60269;52.502;16.732;2024-03-23T07:21:36;7.48;97.57
72320;SHT30;60269;52.502;16.732;2024-03-23T07:25:07;7.49;97.54
72320;SHT30;60269;52.502;16.732;2024-03-23T07:28:38;7.52;97.77
72320;SHT30;60269;52.502;16.732;2024-03-23T07:32:13;7.76;97.37
72320;SHT30;60269;52.502;16.732;2024-03-23T07:35:44;7.97;96.85
72320;SHT30;60269;52.502;16.732;2024-03-23T07:39:15;8.17;96.47
72320;SHT30;60269;52.502;16.732;2024-03-23T07:42:46;8.12;96.28
72320;SHT30;60269;52.502;16.732;2024-03-23T07:46:18;8.05;96.36
72320;SHT30;60269;52.502;16.732;2024-03-23T07:49:50;8.38;95.61
72320;SHT30;60269;52.502;16.732;2024-03-23T07:53:20;8.60;94.89
72320;SHT30;60269;52.502;16.732;2024-03-23T07:56:51;8.49;94.32
72320;SHT30;60269;52.502;16.732;2024-03-23T08:00:22;8.41;94.18
72320;SHT30;60269;52.502;16.732;2024-03-23T08:03:53;8.56;94.74
72320;SHT30;60269;52.502;16.732;2024-03-23T08:07:24;8.77;94.28
72320;SHT30;60269;52.502;16.732;2024-03-23T08:10:56;8.75;93.66
72320;SHT30;60269;52.502;16.732;2024-03-23T08:14:27;8.65;93.36
72320;SHT30;60269;52.502;16.732;2024-03-23T08:17:59;8.53;93.85
72320;SHT30;60269;52.502;16.732;2024-03-23T08:21:30;8.48;93.17
72320;SHT30;60269;52.502;16.732;2024-03-23T08:25:01;8.41;93.62
72320;SHT30;60269;52.502;16.732;2024-03-23T08:28:32;8.24;94.31
72320;SHT30;60269;52.502;16.732;2024-03-23T08:32:03;8.15;94.67
72320;SHT30;60269;52.502;16.732;2024-03-23T08:35:34;8.07;95.07
72320;SHT30;60269;52.502;16.732;2024-03-23T08:39:05;8.07;95.17
72320;SHT30;60269;52.502;16.732;2024-03-23T08:42:36;8.24;95.61
72320;SHT30;60269;52.502;16.732;2024-03-23T08:46:08;8.32;94.97
72320;SHT30;60269;52.502;16.732;2024-03-23T08:49:39;8.24;95.12
72320;SHT30;60269;52.502;16.732;2024-03-23T08:53:10;8.25;95.30
72320;SHT30;60269;52.502;16.732;2024-03-23T08:56:40;8.18;95.63
72320;SHT30;60269;52.502;16.732;2024-03-23T09:00:12;8.04;95.56
72320;SHT30;60269;52.502;16.732;2024-03-23T09:03:43;7.95;95.87
72320;SHT30;60269;52.502;16.732;2024-03-23T09:07:14;8.24;95.41
72320;SHT30;60269;52.502;16.732;2024-03-23T09:10:47;8.34;96.07
72320;SHT30;60269;52.502;16.732;2024-03-23T09:14:18;8.48;95.05
72320;SHT30;60269;52.502;16.732;2024-03-23T09:17:49;8.31;95.39
72320;SHT30;60269;52.502;16.732;2024-03-23T09:21:20;8.11;95.65
72320;SHT30;60269;52.502;16.732;2024-03-23T09:24:51;8.11;95.59
72320;SHT30;60269;52.502;16.732;2024-03-23T09:28:22;8.02;95.26
72320;SHT30;60269;52.502;16.732;2024-03-23T09:31:53;7.94;95.49
72320;SHT30;60269;52.502;16.732;2024-03-23T09:35:24;7.91;95.37
72320;SHT30;60269;52.502;16.732;2024-03-23T09:38:55;7.90;95.82
72320;SHT30;60269;52.502;16.732;2024-03-23T09:42:25;7.71;95.90
72320;SHT30;60269;52.502;16.732;2024-03-23T09:45:56;7.60;96.27
72320;SHT30;60269;52.502;16.732;2024-03-23T09:49:27;7.60;96.61
72320;SHT30;60269;52.502;16.732;2024-03-23T09:52:58;7.62;97.13
72320;SHT30;60269;52.502;16.732;2024-03-23T09:56:29;7.63;96.86
72320;SHT30;60269;52.502;16.732;2024-03-23T10:00:00;7.56;96.95
72320;SHT30;60269;52.502;16.732;2024-03-23T10:03:31;7.43;96.69
72320;SHT30;60269;52.502;16.732;2024-03-23T10:07:13;7.29;97.03
72320;SHT30;60269;52.502;16.732;2024-03-23T10:10:45;7.19;97.48
72320;SHT30;60269;52.502;16.732;2024-03-23T10:14:29;7.18;97.90
72320;SHT30;60269;52.502;16.732;2024-03-23T10:18:17;7.16;98.00
72320;SHT30;60269;52.502;16.732;2024-03-23T10:21:55;7.12;97.99
72320;SHT30;60269;52.502;16.732;2024-03-23T10:25:27;7.14;97.95
72320;SHT30;60269;52.502;16.732;2024-03-23T10:29:00;7.16;97.86
72320;SHT30;60269;52.502;16.732;2024-03-23T10:32:32;7.16;97.86
72320;SHT30;60269;52.502;16.732;2024-03-23T10:36:05;7.28;98.22
72320;SHT30;60269;52.502;16.732;2024-03-23T10:39:39;7.29;98.20
72320;SHT30;60269;52.502;16.732;2024-03-23T10:43:11;7.41;98.09
72320;SHT30;60269;52.502;16.732;2024-03-23T10:46:42;7.50;98.10
72320;SHT30;60269;52.502;16.732;2024-03-23T10:50:13;7.83;97.97
72320;SHT30;60269;52.502;16.732;2024-03-23T10:53:44;7.91;97.48
72320;SHT30;60269;52.502;16.732;2024-03-23T10:57:19;7.86;97.17
72320;SHT30;60269;52.502;16.732;2024-03-23T11:00:53;7.89;97.39
72320;SHT30;60269;52.502;16.732;2024-03-23T11:04:32;8.10;96.63
72320;SHT30;60269;52.502;16.732;2024-03-23T11:08:04;8.02;96.78
72320;SHT30;60269;52.502;16.732;2024-03-23T11:11:35;7.93;97.11
72320;SHT30;60269;52.502;16.732;2024-03-23T11:15:11;7.93;96.70
72320;SHT30;60269;52.502;16.732;2024-03-23T11:18:43;8.10;97.04
72320;SHT30;60269;52.502;16.732;2024-03-23T11:26:08;7.69;96.57
72320;SHT30;60269;52.502;16.732;2024-03-23T11:29:39;7.52;96.87
72320;SHT30;60269;52.502;16.732;2024-03-23T11:33:12;7.56;96.44
72320;SHT30;60269;52.502;16.732;2024-03-23T11:36:44;7.53;96.61
72320;SHT30;60269;52.502;16.732;2024-03-23T11:40:19;7.50;96.58
72320;SHT30;60269;52.502;16.732;2024-03-23T11:43:50;7.39;97.00
72320;SHT30;60269;52.502;16.732;2024-03-23T11:47:21;7.35;96.88
72320;SHT30;60269;52.502;16.732;2024-03-23T11:50:57;7.32;97.02
72320;SHT30;60269;52.502;16.732;2024-03-23T11:54:30;7.21;97.16
72320;SHT30;60269;52.502;16.732;2024-03-23T11:58:01;7.11;97.53
72320;SHT30;60269;52.502;16.732;2024-03-23T12:01:33;7.12;97.09
72320;SHT30;60269;52.502;16.732;2024-03-23T12:05:14;7.07;96.96
72320;SHT30;60269;52.502;16.732;2024-03-23T12:08:45;7.09;96.88
72320;SHT30;60269;52.502;16.732;2024-03-23T12:12:17;7.02;97.14
72320;SHT30;60269;52.502;16.732;2024-03-23T12:15:50;6.97;97.05
72320;SHT30;60269;52.502;16.732;2024-03-23T12:19:21;6.90;96.98
72320;SHT30;60269;52.502;16.732;2024-03-23T12:23:05;6.80;97.45
72320;SHT30;60269;52.502;16.732;2024-03-23T12:26:36;6.60;97.07
72320;SHT30;60269;52.502;16.732;2024-03-23T12:30:08;6.44;97.74
72320;SHT30;60269;52.502;16.732;2024-03-23T12:33:39;6.43;97.78
72320;SHT30;60269;52.502;16.732;2024-03-23T12:37:10;6.35;97.83
72320;SHT30;60269;52.502;16.732;2024-03-23T12:40:49;6.28;97.86
72320;SHT30;60269;52.502;16.732;2024-03-23T12:44:21;6.11;97.50
72320;SHT30;60269;52.502;16.732;2024-03-23T12:47:52;5.99;97.89
72320;SHT30;60269;52.502;16.732;2024-03-23T12:51:26;5.99;97.78
72320;SHT30;60269;52.502;16.732;2024-03-23T12:54:57;5.85;97.82
72320;SHT30;60269;52.502;16.732;2024-03-23T12:58:28;5.85;98.03
72320;SHT30;60269;52.502;16.732;2024-03-23T13:01:59;5.81;98.10
72320;SHT30;60269;52.502;16.732;2024-03-23T13:05:30;5.78;97.81
72320;SHT30;60269;52.502;16.732;2024-03-23T13:09:02;5.58;97.13
72320;SHT30;60269;52.502;16.732;2024-03-23T13:12:33;5.44;97.40
72320;SHT30;60269;52.502;16.732;2024-03-23T13:16:05;5.22;97.33
72320;SHT30;60269;52.502;16.732;2024-03-23T13:19:36;4.96;97.38
72320;SHT30;60269;52.502;16.732;2024-03-23T13:23:08;4.77;97.14
72320;SHT30;60269;52.502;16.732;2024-03-23T13:26:39;4.64;97.07
72320;SHT30;60269;52.502;16.732;2024-03-23T13:30:11;4.57;97.36
72320;SHT30;60269;52.502;16.732;2024-03-23T13:33:42;4.53;97.63
72320;SHT30;60269;52.502;16.732;2024-03-23T13:37:14;4.43;97.38
72320;SHT30;60269;52.502;16.732;2024-03-23T13:40:55;4.27;96.91
72320;SHT30;60269;52.502;16.732;2024-03-23T13:44:29;4.09;97.39
72320;SHT30;60269;52.502;16.732;2024-03-23T13:48:00;4.14;97.42
72320;SHT30;60269;52.502;16.732;2024-03-23T13:51:31;4.21;97.66
72320;SHT30;60269;52.502;16.732;2024-03-23T13:55:03;4.32;97.81
72320;SHT30;60269;52.502;16.732;2024-03-23T13:58:34;4.43;97.72
72320;SHT30;60269;52.502;16.732;2024-03-23T14:02:05;4.44;97.41
72320;SHT30;60269;52.502;16.732;2024-03-23T14:05:37;4.40;96.96
72320;SHT30;60269;52.502;16.732;2024-03-23T14:09:11;4.26;96.63
72320;SHT30;60269;52.502;16.732;2024-03-23T14:12:43;4.41;96.62
72320;SHT30;60269;52.502;16.732;2024-03-23T14:16:14;4.47;96.24
72320;SHT30;60269;52.502;16.732;2024-03-23T14:19:45;4.43;96.11
72320;SHT30;60269;52.502;16.732;2024-03-23T14:23:16;4.37;96.49
72320;SHT30;60269;52.502;16.732;2024-03-23T14:26:48;4.23;96.79
72320;SHT30;60269;52.502;16.732;2024-03-23T14:30:19;4.17;97.20
72320;SHT30;60269;52.502;16.732;2024-03-23T14:33:50;4.14;97.52
72320;SHT30;60269;52.502;16.732;2024-03-23T14:37:21;4.16;97.56
72320;SHT30;60269;52.502;16.732;2024-03-23T14:40:51;4.14;97.82
72320;SHT30;60269;52.502;16.732;2024-03-23T14:44:23;4.14;97.93
72320;SHT30;60269;52.502;16.732;2024-03-23T14:47:54;4.16;98.02
72320;SHT30;60269;52.502;16.732;2024-03-23T14:51:25;4.29;98.07
72320;SHT30;60269;52.502;16.732;2024-03-23T14:54:58;4.14;97.31
72320;SHT30;60269;52.502;16.732;2024-03-23T14:58:29;4.03;96.74
72320;SHT30;60269;52.502;16.732;2024-03-23T15:02:00;3.95;96.83
72320;SHT30;60269;52.502;16.732;2024-03-23T15:05:31;3.90;97.03
72320;SHT30;60269;52.502;16.732;2024-03-23T15:09:02;3.85;97.34
72320;SHT30;60269;52.502;16.732;2024-03-23T15:12:37;3.85;97.56
72320;SHT30;60269;52.502;16.732;2024-03-23T15:16:08;3.89;97.41
72320;SHT30;60269;52.502;16.732;2024-03-23T15:19:40;3.95;97.38
72320;SHT30;60269;52.502;16.732;2024-03-23T15:23:13;3.99;97.43
72320;SHT30;60269;52.502;16.732;2024-03-23T15:26:43;3.99;96.97
72320;SHT30;60269;52.502;16.732;2024-03-23T15:30:14;3.98;97.32
72320;SHT30;60269;52.502;16.732;2024-03-23T15:33:45;4.00;97.60
72320;SHT30;60269;52.502;16.732;2024-03-23T15:37:16;3.96;97.79
72320;SHT30;60269;52.502;16.732;2024-03-23T15:40:51;3.95;97.75
72320;SHT30;60269;52.502;16.732;2024-03-23T15:44:22;3.95;97.69
72320;SHT30;60269;52.502;16.732;2024-03-23T15:47:53;3.96;97.90
72320;SHT30;60269;52.502;16.732;2024-03-23T15:51:24;4.02;97.08
72320;SHT30;60269;52.502;16.732;2024-03-23T15:54:56;3.99;96.84
72320;SHT30;60269;52.502;16.732;2024-03-23T15:58:30;4.03;96.70
72320;SHT30;60269;52.502;16.732;2024-03-23T16:02:01;4.05;97.02
72320;SHT30;60269;52.502;16.732;2024-03-23T16:05:33;3.96;97.22
72320;SHT30;60269;52.502;16.732;2024-03-23T16:09:04;3.85;97.00
72320;SHT30;60269;52.502;16.732;2024-03-23T16:12:35;3.75;97.58
72320;SHT30;60269;52.502;16.732;2024-03-23T16:16:06;3.75;97.69
72320;SHT30;60269;52.502;16.732;2024-03-23T16:19:38;3.71;97.31
72320;SHT30;60269;52.502;16.732;2024-03-23T16:23:09;3.61;97.17
72320;SHT30;60269;52.502;16.732;2024-03-23T16:26:39;3.51;97.28
72320;SHT30;60269;52.502;16.732;2024-03-23T16:30:11;3.41;97.22
72320;SHT30;60269;52.502;16.732;2024-03-23T16:33:42;3.48;97.88
72320;SHT30;60269;52.502;16.732;2024-03-23T16:37:13;3.48;97.81
72320;SHT30;60269;52.502;16.732;2024-03-23T16:40:53;3.47;97.96
72320;SHT30;60269;52.502;16.732;2024-03-23T16:44:24;3.47;98.13
72320;SHT30;60269;52.502;16.732;2024-03-23T16:47:55;3.40;98.30
72320;SHT30;60269;52.502;16.732;2024-03-23T16:51:26;3.41;98.00
72320;SHT30;60269;52.502;16.732;2024-03-23T16:54:57;3.41;98.22
72320;SHT30;60269;52.502;16.732;2024-03-23T16:58:29;3.42;97.83
72320;SHT30;60269;52.502;16.732;2024-03-23T17:02:03;3.37;97.64
72320;SHT30;60269;52.502;16.732;2024-03-23T17:05:38;3.34;97.54
72320;SHT30;60269;52.502;16.732;2024-03-23T17:09:09;3.20;97.71
72320;SHT30;60269;52.502;16.732;2024-03-23T17:12:40;3.24;97.92
72320;SHT30;60269;52.502;16.732;2024-03-23T17:16:11;3.17;98.06
72320;SHT30;60269;52.502;16.732;2024-03-23T17:19:43;3.07;98.44
72320;SHT30;60269;52.502;16.732;2024-03-23T17:23:22;3.13;98.93
72320;SHT30;60269;52.502;16.732;2024-03-23T17:26:53;3.12;99.02
72320;SHT30;60269;52.502;16.732;2024-03-23T17:30:24;3.17;98.57
72320;SHT30;60269;52.502;16.732;2024-03-23T17:33:56;3.17;98.58
72320;SHT30;60269;52.502;16.732;2024-03-23T17:37:27;3.16;98.31
72320;SHT30;60269;52.502;16.732;2024-03-23T17:40:58;3.16;98.24
72320;SHT30;60269;52.502;16.732;2024-03-23T17:44:29;3.26;98.17
72320;SHT30;60269;52.502;16.732;2024-03-23T17:48:00;3.13;98.11
72320;SHT30;60269;52.502;16.732;2024-03-23T17:51:31;3.04;98.45
72320;SHT30;60269;52.502;16.732;2024-03-23T17:55:02;2.91;98.60
72320;SHT30;60269;52.502;16.732;2024-03-23T17:58:33;2.68;98.95
72320;SHT30;60269;52.502;16.732;2024-03-23T18:02:05;2.56;99.58
72320;SHT30;60269;52.502;16.732;2024-03-23T18:05:36;2.45;99.91
72320;SHT30;60269;52.502;16.732;2024-03-23T18:09:07;2.58;99.94
72320;SHT30;60269;52.502;16.732;2024-03-23T18:12:40;2.73;99.90
72320;SHT30;60269;52.502;16.732;2024-03-23T18:16:11;2.75;99.51
72320;SHT30;60269;52.502;16.732;2024-03-23T18:19:42;2.42;99.69
72320;SHT30;60269;52.502;16.732;2024-03-23T18:23:14;2.14;99.99
72320;SHT30;60269;52.502;16.732;2024-03-23T18:26:45;2.33;99.99
72320;SHT30;60269;52.502;16.732;2024-03-23T18:30:16;2.31;99.99
72320;SHT30;60269;52.502;16.732;2024-03-23T18:33:47;2.21;99.99
72320;SHT30;60269;52.502;16.732;2024-03-23T18:37:17;2.10;99.99
72320;SHT30;60269;52.502;16.732;2024-03-23T18:40:48;2.00;99.99
72320;SHT30;60269;52.502;16.732;2024-03-23T18:44:22;2.03;99.99
72320;SHT30;60269;52.502;16.732;2024-03-23T18:47:53;1.99;99.99
72320;SHT30;60269;52.502;16.732;2024-03-23T18:51:23;1.99;99.99
72320;SHT30;60269;52.502;16.732;2024-03-23T18:54:55;2.03;99.99
72320;SHT30;60269;52.502;16.732;2024-03-23T18:58:26;2.00;99.99
72320;SHT30;60269;52.502;16.732;2024-03-23T19:01:57;2.07;99.99
72320;SHT30;60269;52.502;16.732;2024-03-23T19:05:28;1.96;99.99
72320;SHT30;60269;52.502;16.732;2024-03-23T19:08:59;1.94;99.99
72320;SHT30;60269;52.502;16.732;2024-03-23T19:12:30;1.92;99.99
72320;SHT30;60269;52.502;16.732;2024-03-23T19:16:02;1.92;99.99
72320;SHT30;60269;52.502;16.732;2024-03-23T19:19:35;2.02;99.99
72320;SHT30;60269;52.502;16.732;2024-03-23T19:23:06;1.96;99.99
72320;SHT30;60269;52.502;16.732;2024-03-23T19:26:37;2.07;99.99
72320;SHT30;60269;52.502;16.732;2024-03-23T19:30:08;2.04;99.99
72320;SHT30;60269;52.502;16.732;2024-03-23T19:33:40;1.87;99.99
72320;SHT30;60269;52.502;16.732;2024-03-23T19:37:11;2.06;99.99
72320;SHT30;60269;52.502;16.732;2024-03-23T19:40:51;1.94;99.99
72320;SHT30;60269;52.502;16.732;2024-03-23T19:44:22;1.97;99.99
72320;SHT30;60269;52.502;16.732;2024-03-23T19:47:53;1.94;99.99
72320;SHT30;60269;52.502;16.732;2024-03-23T19:51:24;1.90;99.99
72320;SHT30;60269;52.502;16.732;2024-03-23T19:54:55;1.77;99.99
72320;SHT30;60269;52.502;16.732;2024-03-23T19:58:26;1.76;99.99
72320;SHT30;60269;52.502;16.732;2024-03-23T20:01:57;1.69;99.99
72320;SHT30;60269;52.502;16.732;2024-03-23T20:05:28;1.93;99.99
72320;SHT30;60269;52.502;16.732;2024-03-23T20:08:59;1.77;99.99
72320;SHT30;60269;52.502;16.732;2024-03-23T20:12:30;1.83;99.99
72320;SHT30;60269;52.502;16.732;2024-03-23T20:16:01;1.89;99.99
72320;SHT30;60269;52.502;16.732;2024-03-23T20:19:32;1.97;99.99
72320;SHT30;60269;52.502;16.732;2024-03-23T20:23:03;2.06;99.99
72320;SHT30;60269;52.502;16.732;2024-03-23T20:26:34;1.87;99.99
72320;SHT30;60269;52.502;16.732;2024-03-23T20:30:06;1.72;99.99
72320;SHT30;60269;52.502;16.732;2024-03-23T20:33:38;1.72;99.99
72320;SHT30;60269;52.502;16.732;2024-03-23T20:37:09;1.76;99.99
72320;SHT30;60269;52.502;16.732;2024-03-23T20:40:40;1.80;99.99
72320;SHT30;60269;52.502;16.732;2024-03-23T20:44:11;1.77;99.99
72320;SHT30;60269;52.502;16.732;2024-03-23T20:47:42;1.63;99.99
72320;SHT30;60269;52.502;16.732;2024-03-23T20:51:12;1.73;99.99
72320;SHT30;60269;52.502;16.732;2024-03-23T20:54:43;1.75;99.99
72320;SHT30;60269;52.502;16.732;2024-03-23T20:58:14;1.75;99.99
72320;SHT30;60269;52.502;16.732;2024-03-23T21:01:45;1.86;99.99
72320;SHT30;60269;52.502;16.732;2024-03-23T21:05:16;1.96;99.99
72320;SHT30;60269;52.502;16.732;2024-03-23T21:08:46;1.94;99.99
72320;SHT30;60269;52.502;16.732;2024-03-23T21:12:23;2.09;99.99
72320;SHT30;60269;52.502;16.732;2024-03-23T21:15:54;2.09;99.99
72320;SHT30;60269;52.502;16.732;2024-03-23T21:19:30;2.11;99.99
72320;SHT30;60269;52.502;16.732;2024-03-23T21:23:01;2.10;99.99
72320;SHT30;60269;52.502;16.732;2024-03-23T21:26:32;2.06;99.99
72320;SHT30;60269;52.502;16.732;2024-03-23T21:30:05;2.15;99.99
72320;SHT30;60269;52.502;16.732;2024-03-23T21:33:39;2.18;99.99
72320;SHT30;60269;52.502;16.732;2024-03-23T21:37:15;2.20;99.99
72320;SHT30;60269;52.502;16.732;2024-03-23T21:40:57;2.24;99.99
72320;SHT30;60269;52.502;16.732;2024-03-23T21:44:30;2.38;99.99
72320;SHT30;60269;52.502;16.732;2024-03-23T21:48:24;2.35;99.99
72320;SHT30;60269;52.502;16.732;2024-03-23T21:52:27;2.37;99.99
72320;SHT30;60269;52.502;16.732;2024-03-23T21:55:58;2.35;99.90
72320;SHT30;60269;52.502;16.732;2024-03-23T21:59:29;2.37;99.94
72320;SHT30;60269;52.502;16.732;2024-03-23T22:03:00;2.31;99.99
72320;SHT30;60269;52.502;16.732;2024-03-23T22:06:31;2.41;99.95
72320;SHT30;60269;52.502;16.732;2024-03-23T22:10:02;2.30;99.99
72320;SHT30;60269;52.502;16.732;2024-03-23T22:13:34;2.30;99.99
72320;SHT30;60269;52.502;16.732;2024-03-23T22:17:05;2.33;99.95
72320;SHT30;60269;52.502;16.732;2024-03-23T22:20:36;2.25;99.99
72320;SHT30;60269;52.502;16.732;2024-03-23T22:24:08;2.25;99.99
72320;SHT30;60269;52.502;16.732;2024-03-23T22:27:39;2.11;99.99
72320;SHT30;60269;52.502;16.732;2024-03-23T22:31:14;2.13;99.99
72320;SHT30;60269;52.502;16.732;2024-03-23T22:34:45;2.13;99.99
72320;SHT30;60269;52.502;16.732;2024-03-23T22:38:16;2.07;99.99
72320;SHT30;60269;52.502;16.732;2024-03-23T22:41:49;1.93;99.99
72320;SHT30;60269;52.502;16.732;2024-03-23T22:45:20;2.07;99.99
72320;SHT30;60269;52.502;16.732;2024-03-23T22:48:50;2.06;99.99
72320;SHT30;60269;52.502;16.732;2024-03-23T22:52:21;2.06;99.99
72320;SHT30;60269;52.502;16.732;2024-03-23T22:55:54;1.94;99.99
72320;SHT30;60269;52.502;16.732;2024-03-23T22:59:52;1.94;99.99
72320;SHT30;60269;52.502;16.732;2024-03-23T23:03:25;1.96;99.99
72320;SHT30;60269;52.502;16.732;2024-03-23T23:07:04;1.92;99.99
72320;SHT30;60269;52.502;16.732;2024-03-23T23:10:36;1.65;99.99
72320;SHT30;60269;52.502;16.732;2024-03-23T23:14:07;1.54;99.99